sensor_id;sensor_type;location;lat;lon;timestamp;P1;durP1;ratioP1;P2;durP2;ratioP2
77085;SDS011;66014;53.134;18.006;2023-08-21T00:01:33;9.00;;;7.10;;
77085;SDS011;66014;53.134;18.006;2023-08-21T00:04:00;9.10;;;7.30;;
77085;SDS011;66014;53.134;18.006;2023-08-21T00:06:26;11.30;;;7.30;;
77085;SDS011;66014;53.134;18.006;2023-08-21T00:08:53;9.50;;;7.00;;
77085;SDS011;66014;53.134;18.006;2023-08-21T00:11:21;11.00;;;7.40;;
77085;SDS011;66014;53.134;18.006;2023-08-21T00:13:49;11.10;;;8.20;;
77085;SDS011;66014;53.134;18.006;2023-08-21T00:16:16;10.10;;;7.50;;
77085;SDS011;66014;53.134;18.006;2023-08-21T00:18:43;11.10;;;7.20;;
77085;SDS011;66014;53.134;18.006;2023-08-21T00:21:10;8.40;;;6.90;;
77085;SDS011;66014;53.134;18.006;2023-08-21T00:23:36;9.90;;;6.90;;
77085;SDS011;66014;53.134;18.006;2023-08-21T00:26:03;10.90;;;7.30;;
77085;SDS011;66014;53.134;18.006;2023-08-21T00:28:29;11.40;;;7.60;;
77085;SDS011;66014;53.134;18.006;2023-08-21T00:31:00;9.70;;;7.30;;
77085;SDS011;66014;53.134;18.006;2023-08-21T00:35:57;10.10;;;7.20;;
77085;SDS011;66014;53.134;18.006;2023-08-21T00:38:23;9.40;;;6.90;;
77085;SDS011;66014;53.134;18.006;2023-08-21T00:40:50;10.30;;;7.00;;
77085;SDS011;66014;53.134;18.006;2023-08-21T00:43:17;9.50;;;7.20;;
77085;SDS011;66014;53.134;18.006;2023-08-21T00:45:46;9.80;;;7.20;;
77085;SDS011;66014;53.134;18.006;2023-08-21T00:48:14;11.50;;;7.40;;
77085;SDS011;66014;53.134;18.006;2023-08-21T00:50:43;10.00;;;6.90;;
77085;SDS011;66014;53.134;18.006;2023-08-21T00:53:11;9.50;;;7.60;;
77085;SDS011;66014;53.134;18.006;2023-08-21T00:55:38;10.50;;;7.20;;
77085;SDS011;66014;53.134;18.006;2023-08-21T00:58:05;10.20;;;7.30;;
77085;SDS011;66014;53.134;18.006;2023-08-21T01:00:31;10.40;;;7.30;;
77085;SDS011;66014;53.134;18.006;2023-08-21T01:03:01;9.80;;;7.30;;
77085;SDS011;66014;53.134;18.006;2023-08-21T01:05:27;11.50;;;7.00;;
77085;SDS011;66014;53.134;18.006;2023-08-21T01:11:14;10.60;;;6.80;;
77085;SDS011;66014;53.134;18.006;2023-08-21T01:14:36;8.10;;;6.50;;
77085;SDS011;66014;53.134;18.006;2023-08-21T01:16:50;9.40;;;7.00;;
77085;SDS011;66014;53.134;18.006;2023-08-21T01:19:24;9.10;;;6.70;;
77085;SDS011;66014;53.134;18.006;2023-08-21T01:21:58;8.90;;;6.90;;
77085;SDS011;66014;53.134;18.006;2023-08-21T01:24:26;9.50;;;6.60;;
77085;SDS011;66014;53.134;18.006;2023-08-21T01:26:53;10.00;;;7.00;;
77085;SDS011;66014;53.134;18.006;2023-08-21T01:29:21;9.20;;;6.50;;
77085;SDS011;66014;53.134;18.006;2023-08-21T01:34:52;12.10;;;7.80;;
77085;SDS011;66014;53.134;18.006;2023-08-21T01:39:49;9.60;;;6.80;;
77085;SDS011;66014;53.134;18.006;2023-08-21T01:42:16;9.10;;;7.00;;
77085;SDS011;66014;53.134;18.006;2023-08-21T01:44:45;9.70;;;6.20;;
77085;SDS011;66014;53.134;18.006;2023-08-21T01:47:12;9.20;;;6.10;;
77085;SDS011;66014;53.134;18.006;2023-08-21T01:49:38;9.10;;;6.70;;
77085;SDS011;66014;53.134;18.006;2023-08-21T01:52:05;10.20;;;6.90;;
77085;SDS011;66014;53.134;18.006;2023-08-21T01:54:32;8.90;;;6.30;;
77085;SDS011;66014;53.134;18.006;2023-08-21T01:56:58;6.80;;;5.60;;
77085;SDS011;66014;53.134;18.006;2023-08-21T01:59:25;10.20;;;5.90;;
77085;SDS011;66014;53.134;18.006;2023-08-21T02:01:52;7.50;;;5.20;;
77085;SDS011;66014;53.134;18.006;2023-08-21T02:04:18;9.60;;;5.80;;
77085;SDS011;66014;53.134;18.006;2023-08-21T02:06:45;8.90;;;5.70;;
77085;SDS011;66014;53.134;18.006;2023-08-21T02:09:11;11.20;;;6.30;;
77085;SDS011;66014;53.134;18.006;2023-08-21T02:11:38;8.40;;;6.00;;
77085;SDS011;66014;53.134;18.006;2023-08-21T02:14:04;8.70;;;6.00;;
77085;SDS011;66014;53.134;18.006;2023-08-21T02:16:31;10.60;;;6.70;;
77085;SDS011;66014;53.134;18.006;2023-08-21T02:18:58;9.70;;;6.50;;
77085;SDS011;66014;53.134;18.006;2023-08-21T02:21:25;8.90;;;6.30;;
77085;SDS011;66014;53.134;18.006;2023-08-21T02:23:51;8.60;;;5.90;;
77085;SDS011;66014;53.134;18.006;2023-08-21T02:26:18;7.80;;;5.60;;
77085;SDS011;66014;53.134;18.006;2023-08-21T02:28:48;7.60;;;5.10;;
77085;SDS011;66014;53.134;18.006;2023-08-21T02:31:15;7.30;;;4.90;;
77085;SDS011;66014;53.134;18.006;2023-08-21T02:33:41;8.80;;;5.10;;
77085;SDS011;66014;53.134;18.006;2023-08-21T02:36:09;10.90;;;5.70;;
77085;SDS011;66014;53.134;18.006;2023-08-21T02:38:37;8.60;;;5.90;;
77085;SDS011;66014;53.134;18.006;2023-08-21T02:41:03;10.00;;;5.90;;
77085;SDS011;66014;53.134;18.006;2023-08-21T02:43:30;11.30;;;6.50;;
77085;SDS011;66014;53.134;18.006;2023-08-21T02:45:57;8.90;;;6.10;;
77085;SDS011;66014;53.134;18.006;2023-08-21T02:48:24;11.10;;;6.00;;
77085;SDS011;66014;53.134;18.006;2023-08-21T02:50:50;9.90;;;6.50;;
77085;SDS011;66014;53.134;18.006;2023-08-21T02:53:17;9.00;;;5.50;;
77085;SDS011;66014;53.134;18.006;2023-08-21T02:55:43;9.10;;;6.00;;
77085;SDS011;66014;53.134;18.006;2023-08-21T02:58:10;9.40;;;5.50;;
77085;SDS011;66014;53.134;18.006;2023-08-21T03:03:46;7.80;;;5.40;;
77085;SDS011;66014;53.134;18.006;2023-08-21T03:06:22;9.40;;;6.00;;
77085;SDS011;66014;53.134;18.006;2023-08-21T03:08:48;7.20;;;4.90;;
77085;SDS011;66014;53.134;18.006;2023-08-21T03:11:15;7.60;;;5.10;;
77085;SDS011;66014;53.134;18.006;2023-08-21T03:13:41;8.00;;;5.20;;
77085;SDS011;66014;53.134;18.006;2023-08-21T03:16:08;8.10;;;5.50;;
77085;SDS011;66014;53.134;18.006;2023-08-21T03:18:45;11.10;;;5.60;;
77085;SDS011;66014;53.134;18.006;2023-08-21T03:21:23;9.30;;;5.30;;
77085;SDS011;66014;53.134;18.006;2023-08-21T03:23:51;7.70;;;4.90;;
77085;SDS011;66014;53.134;18.006;2023-08-21T03:26:50;9.90;;;5.30;;
77085;SDS011;66014;53.134;18.006;2023-08-21T03:29:16;9.40;;;4.80;;
77085;SDS011;66014;53.134;18.006;2023-08-21T03:31:43;8.10;;;5.10;;
77085;SDS011;66014;53.134;18.006;2023-08-21T03:34:09;8.60;;;5.20;;
77085;SDS011;66014;53.134;18.006;2023-08-21T03:36:38;9.20;;;4.90;;
77085;SDS011;66014;53.134;18.006;2023-08-21T03:39:05;8.70;;;5.40;;
77085;SDS011;66014;53.134;18.006;2023-08-21T03:41:34;9.30;;;5.30;;
77085;SDS011;66014;53.134;18.006;2023-08-21T03:44:01;9.40;;;5.60;;
77085;SDS011;66014;53.134;18.006;2023-08-21T03:46:27;7.20;;;4.70;;
77085;SDS011;66014;53.134;18.006;2023-08-21T03:48:56;8.00;;;5.00;;
77085;SDS011;66014;53.134;18.006;2023-08-21T03:51:23;8.50;;;4.80;;
77085;SDS011;66014;53.134;18.006;2023-08-21T03:53:49;7.90;;;4.90;;
77085;SDS011;66014;53.134;18.006;2023-08-21T03:56:16;9.50;;;5.20;;
77085;SDS011;66014;53.134;18.006;2023-08-21T03:58:44;8.30;;;5.00;;
77085;SDS011;66014;53.134;18.006;2023-08-21T04:01:11;7.60;;;4.50;;
77085;SDS011;66014;53.134;18.006;2023-08-21T04:03:41;9.40;;;5.50;;
77085;SDS011;66014;53.134;18.006;2023-08-21T04:06:08;7.40;;;5.00;;
77085;SDS011;66014;53.134;18.006;2023-08-21T04:08:34;11.30;;;4.70;;
77085;SDS011;66014;53.134;18.006;2023-08-21T04:11:01;7.90;;;4.60;;
77085;SDS011;66014;53.134;18.006;2023-08-21T04:13:28;8.40;;;4.80;;
77085;SDS011;66014;53.134;18.006;2023-08-21T04:15:54;10.20;;;4.90;;
77085;SDS011;66014;53.134;18.006;2023-08-21T04:18:22;8.90;;;4.80;;
77085;SDS011;66014;53.134;18.006;2023-08-21T04:20:49;10.50;;;5.10;;
77085;SDS011;66014;53.134;18.006;2023-08-21T04:23:16;9.30;;;4.80;;
77085;SDS011;66014;53.134;18.006;2023-08-21T04:25:43;11.30;;;5.00;;
77085;SDS011;66014;53.134;18.006;2023-08-21T04:28:09;7.60;;;4.60;;
77085;SDS011;66014;53.134;18.006;2023-08-21T04:30:36;8.70;;;5.00;;
77085;SDS011;66014;53.134;18.006;2023-08-21T04:33:03;8.90;;;4.70;;
77085;SDS011;66014;53.134;18.006;2023-08-21T04:35:29;11.50;;;7.90;;
77085;SDS011;66014;53.134;18.006;2023-08-21T04:37:56;8.10;;;5.60;;
77085;SDS011;66014;53.134;18.006;2023-08-21T04:40:23;12.10;;;5.60;;
77085;SDS011;66014;53.134;18.006;2023-08-21T04:42:50;7.40;;;4.70;;
77085;SDS011;66014;53.134;18.006;2023-08-21T04:45:17;8.30;;;4.90;;
77085;SDS011;66014;53.134;18.006;2023-08-21T04:47:43;12.40;;;4.80;;
77085;SDS011;66014;53.134;18.006;2023-08-21T04:50:09;9.70;;;4.60;;
77085;SDS011;66014;53.134;18.006;2023-08-21T04:52:38;10.70;;;5.20;;
77085;SDS011;66014;53.134;18.006;2023-08-21T04:55:05;9.20;;;4.60;;
77085;SDS011;66014;53.134;18.006;2023-08-21T04:57:33;7.90;;;4.90;;
77085;SDS011;66014;53.134;18.006;2023-08-21T04:59:59;10.30;;;4.90;;
77085;SDS011;66014;53.134;18.006;2023-08-21T05:02:26;9.00;;;4.80;;
77085;SDS011;66014;53.134;18.006;2023-08-21T05:04:52;7.30;;;4.30;;
77085;SDS011;66014;53.134;18.006;2023-08-21T05:07:19;8.10;;;4.40;;
77085;SDS011;66014;53.134;18.006;2023-08-21T05:09:45;8.70;;;4.10;;
77085;SDS011;66014;53.134;18.006;2023-08-21T05:12:11;7.70;;;4.50;;
77085;SDS011;66014;53.134;18.006;2023-08-21T05:14:38;8.80;;;4.50;;
77085;SDS011;66014;53.134;18.006;2023-08-21T05:17:04;8.90;;;4.60;;
77085;SDS011;66014;53.134;18.006;2023-08-21T05:19:31;8.70;;;4.60;;
77085;SDS011;66014;53.134;18.006;2023-08-21T05:21:57;10.20;;;4.20;;
77085;SDS011;66014;53.134;18.006;2023-08-21T05:24:24;7.40;;;4.00;;
77085;SDS011;66014;53.134;18.006;2023-08-21T05:26:51;8.70;;;4.00;;
77085;SDS011;66014;53.134;18.006;2023-08-21T05:29:18;7.00;;;3.90;;
77085;SDS011;66014;53.134;18.006;2023-08-21T05:31:45;7.70;;;3.60;;
77085;SDS011;66014;53.134;18.006;2023-08-21T05:34:11;8.70;;;4.20;;
77085;SDS011;66014;53.134;18.006;2023-08-21T05:36:38;7.40;;;3.90;;
77085;SDS011;66014;53.134;18.006;2023-08-21T05:39:04;8.40;;;3.80;;
77085;SDS011;66014;53.134;18.006;2023-08-21T05:41:32;7.10;;;3.70;;
77085;SDS011;66014;53.134;18.006;2023-08-21T05:43:59;5.50;;;3.20;;
77085;SDS011;66014;53.134;18.006;2023-08-21T05:46:25;5.50;;;3.50;;
77085;SDS011;66014;53.134;18.006;2023-08-21T05:48:52;6.40;;;2.90;;
77085;SDS011;66014;53.134;18.006;2023-08-21T05:51:18;7.10;;;3.10;;
77085;SDS011;66014;53.134;18.006;2023-08-21T05:53:45;5.80;;;4.00;;
77085;SDS011;66014;53.134;18.006;2023-08-21T05:56:11;6.30;;;3.40;;
77085;SDS011;66014;53.134;18.006;2023-08-21T05:58:38;5.70;;;3.40;;
77085;SDS011;66014;53.134;18.006;2023-08-21T06:01:04;6.40;;;3.50;;
77085;SDS011;66014;53.134;18.006;2023-08-21T06:03:31;5.60;;;3.60;;
77085;SDS011;66014;53.134;18.006;2023-08-21T06:05:57;7.10;;;3.30;;
77085;SDS011;66014;53.134;18.006;2023-08-21T06:08:23;6.50;;;2.70;;
77085;SDS011;66014;53.134;18.006;2023-08-21T06:10:50;5.50;;;2.70;;
77085;SDS011;66014;53.134;18.006;2023-08-21T06:13:17;5.50;;;2.60;;
77085;SDS011;66014;53.134;18.006;2023-08-21T06:15:44;4.70;;;2.50;;
77085;SDS011;66014;53.134;18.006;2023-08-21T06:18:11;5.10;;;2.40;;
77085;SDS011;66014;53.134;18.006;2023-08-21T06:20:38;4.90;;;2.10;;
77085;SDS011;66014;53.134;18.006;2023-08-21T06:23:05;3.90;;;2.00;;
77085;SDS011;66014;53.134;18.006;2023-08-21T06:25:32;5.10;;;2.50;;
77085;SDS011;66014;53.134;18.006;2023-08-21T06:27:59;6.00;;;2.40;;
77085;SDS011;66014;53.134;18.006;2023-08-21T06:30:26;4.40;;;2.50;;
77085;SDS011;66014;53.134;18.006;2023-08-21T06:32:53;4.10;;;2.80;;
77085;SDS011;66014;53.134;18.006;2023-08-21T06:35:20;4.90;;;2.20;;
77085;SDS011;66014;53.134;18.006;2023-08-21T06:37:47;7.90;;;2.50;;
77085;SDS011;66014;53.134;18.006;2023-08-21T06:40:13;3.80;;;1.70;;
77085;SDS011;66014;53.134;18.006;2023-08-21T06:42:40;3.70;;;1.80;;
77085;SDS011;66014;53.134;18.006;2023-08-21T06:45:06;4.90;;;1.80;;
77085;SDS011;66014;53.134;18.006;2023-08-21T06:47:34;3.60;;;1.60;;
77085;SDS011;66014;53.134;18.006;2023-08-21T06:50:00;4.80;;;1.90;;
77085;SDS011;66014;53.134;18.006;2023-08-21T06:52:27;4.00;;;1.70;;
77085;SDS011;66014;53.134;18.006;2023-08-21T06:54:53;4.10;;;1.60;;
77085;SDS011;66014;53.134;18.006;2023-08-21T06:57:20;3.40;;;1.50;;
77085;SDS011;66014;53.134;18.006;2023-08-21T06:59:46;3.90;;;1.70;;
77085;SDS011;66014;53.134;18.006;2023-08-21T07:02:12;2.70;;;1.50;;
77085;SDS011;66014;53.134;18.006;2023-08-21T07:04:39;2.90;;;1.40;;
77085;SDS011;66014;53.134;18.006;2023-08-21T07:07:08;2.40;;;1.50;;
77085;SDS011;66014;53.134;18.006;2023-08-21T07:09:35;3.00;;;1.30;;
77085;SDS011;66014;53.134;18.006;2023-08-21T07:12:01;2.80;;;1.30;;
77085;SDS011;66014;53.134;18.006;2023-08-21T07:14:29;3.50;;;1.50;;
77085;SDS011;66014;53.134;18.006;2023-08-21T07:16:55;2.80;;;1.30;;
77085;SDS011;66014;53.134;18.006;2023-08-21T07:19:23;3.70;;;1.50;;
77085;SDS011;66014;53.134;18.006;2023-08-21T07:21:49;5.30;;;1.50;;
77085;SDS011;66014;53.134;18.006;2023-08-21T07:24:16;2.90;;;1.20;;
77085;SDS011;66014;53.134;18.006;2023-08-21T07:41:18;3.70;;;1.30;;
77085;SDS011;66014;53.134;18.006;2023-08-21T08:06:48;2.50;;;1.00;;
77085;SDS011;66014;53.134;18.006;2023-08-21T08:09:44;2.40;;;1.10;;
77085;SDS011;66014;53.134;18.006;2023-08-21T08:15:52;5.10;;;1.10;;
77085;SDS011;66014;53.134;18.006;2023-08-21T08:19:19;3.30;;;1.40;;
77085;SDS011;66014;53.134;18.006;2023-08-21T08:28:34;3.10;;;1.10;;
77085;SDS011;66014;53.134;18.006;2023-08-21T08:31:01;2.70;;;1.30;;
77085;SDS011;66014;53.134;18.006;2023-08-21T08:44:08;3.30;;;1.10;;
77085;SDS011;66014;53.134;18.006;2023-08-21T08:57:49;3.00;;;1.10;;
77085;SDS011;66014;53.134;18.006;2023-08-21T09:26:37;2.90;;;1.00;;
77085;SDS011;66014;53.134;18.006;2023-08-21T09:46:28;4.00;;;1.10;;
77085;SDS011;66014;53.134;18.006;2023-08-21T09:56:43;4.00;;;0.90;;
77085;SDS011;66014;53.134;18.006;2023-08-21T09:59:11;2.30;;;1.10;;
77085;SDS011;66014;53.134;18.006;2023-08-21T10:06:11;3.00;;;1.30;;
77085;SDS011;66014;53.134;18.006;2023-08-21T10:12:49;3.20;;;1.10;;
77085;SDS011;66014;53.134;18.006;2023-08-21T10:15:22;3.50;;;1.30;;
77085;SDS011;66014;53.134;18.006;2023-08-21T10:17:49;2.80;;;1.20;;
77085;SDS011;66014;53.134;18.006;2023-08-21T10:20:20;3.70;;;1.10;;
77085;SDS011;66014;53.134;18.006;2023-08-21T10:25:56;5.40;;;1.10;;
77085;SDS011;66014;53.134;18.006;2023-08-21T10:41:07;2.40;;;1.10;;
77085;SDS011;66014;53.134;18.006;2023-08-21T10:43:46;2.90;;;1.00;;
77085;SDS011;66014;53.134;18.006;2023-08-21T10:49:45;2.70;;;1.20;;
77085;SDS011;66014;53.134;18.006;2023-08-21T10:55:53;4.30;;;1.20;;
77085;SDS011;66014;53.134;18.006;2023-08-21T10:58:56;4.30;;;1.30;;
77085;SDS011;66014;53.134;18.006;2023-08-21T11:01:55;3.80;;;1.20;;
77085;SDS011;66014;53.134;18.006;2023-08-21T11:04:47;3.30;;;1.20;;
77085;SDS011;66014;53.134;18.006;2023-08-21T11:27:12;2.80;;;1.00;;
77085;SDS011;66014;53.134;18.006;2023-08-21T11:35:31;3.30;;;1.40;;
77085;SDS011;66014;53.134;18.006;2023-08-21T11:45:28;3.90;;;1.30;;
77085;SDS011;66014;53.134;18.006;2023-08-21T12:01:16;4.10;;;1.30;;
77085;SDS011;66014;53.134;18.006;2023-08-21T12:03:44;3.10;;;1.60;;
77085;SDS011;66014;53.134;18.006;2023-08-21T12:06:11;4.50;;;1.10;;
77085;SDS011;66014;53.134;18.006;2023-08-21T12:09:12;6.10;;;1.20;;
77085;SDS011;66014;53.134;18.006;2023-08-21T12:11:32;2.60;;;1.20;;
77085;SDS011;66014;53.134;18.006;2023-08-21T12:17:44;2.90;;;1.10;;
77085;SDS011;66014;53.134;18.006;2023-08-21T12:20:10;2.00;;;0.90;;
77085;SDS011;66014;53.134;18.006;2023-08-21T12:22:43;3.80;;;1.20;;
77085;SDS011;66014;53.134;18.006;2023-08-21T12:25:10;3.90;;;1.40;;
77085;SDS011;66014;53.134;18.006;2023-08-21T12:30:42;4.60;;;1.30;;
77085;SDS011;66014;53.134;18.006;2023-08-21T12:33:09;4.50;;;1.20;;
77085;SDS011;66014;53.134;18.006;2023-08-21T12:35:36;5.50;;;1.70;;
77085;SDS011;66014;53.134;18.006;2023-08-21T12:38:10;2.80;;;1.30;;
77085;SDS011;66014;53.134;18.006;2023-08-21T12:40:42;3.80;;;1.60;;
77085;SDS011;66014;53.134;18.006;2023-08-21T12:43:09;3.40;;;1.30;;
77085;SDS011;66014;53.134;18.006;2023-08-21T12:45:36;4.20;;;1.60;;
77085;SDS011;66014;53.134;18.006;2023-08-21T12:48:13;4.00;;;1.60;;
77085;SDS011;66014;53.134;18.006;2023-08-21T12:50:41;3.80;;;1.40;;
77085;SDS011;66014;53.134;18.006;2023-08-21T12:53:07;4.60;;;1.50;;
77085;SDS011;66014;53.134;18.006;2023-08-21T12:59:04;5.80;;;1.80;;
77085;SDS011;66014;53.134;18.006;2023-08-21T13:04:18;4.90;;;1.70;;
77085;SDS011;66014;53.134;18.006;2023-08-21T13:06:45;3.30;;;1.50;;
77085;SDS011;66014;53.134;18.006;2023-08-21T13:12:09;4.40;;;1.70;;
77085;SDS011;66014;53.134;18.006;2023-08-21T13:21:25;5.70;;;1.40;;
77085;SDS011;66014;53.134;18.006;2023-08-21T13:31:18;4.00;;;1.70;;
77085;SDS011;66014;53.134;18.006;2023-08-21T13:48:00;5.10;;;2.00;;
77085;SDS011;66014;53.134;18.006;2023-08-21T13:50:26;3.80;;;1.40;;
77085;SDS011;66014;53.134;18.006;2023-08-21T13:56:33;4.60;;;2.00;;
77085;SDS011;66014;53.134;18.006;2023-08-21T13:59:00;6.40;;;1.90;;
77085;SDS011;66014;53.134;18.006;2023-08-21T14:04:15;3.20;;;1.70;;
77085;SDS011;66014;53.134;18.006;2023-08-21T14:06:48;5.00;;;1.70;;
77085;SDS011;66014;53.134;18.006;2023-08-21T14:17:38;2.60;;;1.40;;
77085;SDS011;66014;53.134;18.006;2023-08-21T14:20:05;4.10;;;1.80;;
77085;SDS011;66014;53.134;18.006;2023-08-21T14:22:33;4.30;;;1.70;;
77085;SDS011;66014;53.134;18.006;2023-08-21T14:25:00;3.50;;;1.60;;
77085;SDS011;66014;53.134;18.006;2023-08-21T14:27:26;4.60;;;1.50;;
77085;SDS011;66014;53.134;18.006;2023-08-21T14:29:53;5.50;;;2.00;;
77085;SDS011;66014;53.134;18.006;2023-08-21T14:32:19;3.90;;;1.80;;
77085;SDS011;66014;53.134;18.006;2023-08-21T14:34:46;4.10;;;1.50;;
77085;SDS011;66014;53.134;18.006;2023-08-21T14:37:13;3.70;;;1.40;;
77085;SDS011;66014;53.134;18.006;2023-08-21T14:39:41;3.50;;;1.30;;
77085;SDS011;66014;53.134;18.006;2023-08-21T14:42:13;7.70;;;1.70;;
77085;SDS011;66014;53.134;18.006;2023-08-21T14:44:40;4.20;;;1.90;;
77085;SDS011;66014;53.134;18.006;2023-08-21T14:47:06;6.00;;;1.50;;
77085;SDS011;66014;53.134;18.006;2023-08-21T14:49:33;3.40;;;1.60;;
77085;SDS011;66014;53.134;18.006;2023-08-21T14:51:59;5.50;;;1.50;;
77085;SDS011;66014;53.134;18.006;2023-08-21T14:54:26;3.30;;;1.60;;
77085;SDS011;66014;53.134;18.006;2023-08-21T14:56:52;2.90;;;1.30;;
77085;SDS011;66014;53.134;18.006;2023-08-21T14:59:19;3.60;;;1.60;;
77085;SDS011;66014;53.134;18.006;2023-08-21T15:01:45;3.50;;;1.30;;
77085;SDS011;66014;53.134;18.006;2023-08-21T15:04:12;5.60;;;1.60;;
77085;SDS011;66014;53.134;18.006;2023-08-21T15:06:39;4.40;;;1.60;;
77085;SDS011;66014;53.134;18.006;2023-08-21T15:09:08;4.70;;;1.80;;
77085;SDS011;66014;53.134;18.006;2023-08-21T15:11:34;5.10;;;1.90;;
77085;SDS011;66014;53.134;18.006;2023-08-21T15:14:01;3.70;;;1.50;;
77085;SDS011;66014;53.134;18.006;2023-08-21T15:16:31;3.20;;;1.60;;
77085;SDS011;66014;53.134;18.006;2023-08-21T15:18:57;6.00;;;1.70;;
77085;SDS011;66014;53.134;18.006;2023-08-21T15:21:25;4.40;;;1.80;;
77085;SDS011;66014;53.134;18.006;2023-08-21T15:23:51;4.60;;;1.60;;
77085;SDS011;66014;53.134;18.006;2023-08-21T15:26:18;3.10;;;1.40;;
77085;SDS011;66014;53.134;18.006;2023-08-21T15:28:45;3.60;;;1.40;;
77085;SDS011;66014;53.134;18.006;2023-08-21T15:31:11;4.80;;;1.40;;
77085;SDS011;66014;53.134;18.006;2023-08-21T15:33:38;6.00;;;1.90;;
77085;SDS011;66014;53.134;18.006;2023-08-21T15:36:05;4.20;;;1.60;;
77085;SDS011;66014;53.134;18.006;2023-08-21T15:38:32;4.70;;;1.80;;
77085;SDS011;66014;53.134;18.006;2023-08-21T15:40:58;4.00;;;1.70;;
77085;SDS011;66014;53.134;18.006;2023-08-21T15:43:27;4.80;;;1.70;;
77085;SDS011;66014;53.134;18.006;2023-08-21T15:45:54;4.30;;;1.60;;
77085;SDS011;66014;53.134;18.006;2023-08-21T15:48:21;5.30;;;1.70;;
77085;SDS011;66014;53.134;18.006;2023-08-21T15:50:48;4.50;;;1.80;;
77085;SDS011;66014;53.134;18.006;2023-08-21T15:53:15;4.70;;;1.80;;
77085;SDS011;66014;53.134;18.006;2023-08-21T15:55:42;4.10;;;1.60;;
77085;SDS011;66014;53.134;18.006;2023-08-21T15:58:09;3.90;;;1.60;;
77085;SDS011;66014;53.134;18.006;2023-08-21T16:00:36;5.00;;;1.80;;
77085;SDS011;66014;53.134;18.006;2023-08-21T16:03:03;3.80;;;1.80;;
77085;SDS011;66014;53.134;18.006;2023-08-21T16:05:30;5.00;;;1.70;;
77085;SDS011;66014;53.134;18.006;2023-08-21T16:07:57;5.10;;;1.70;;
77085;SDS011;66014;53.134;18.006;2023-08-21T16:10:23;5.10;;;1.60;;
77085;SDS011;66014;53.134;18.006;2023-08-21T16:12:50;3.60;;;2.10;;
77085;SDS011;66014;53.134;18.006;2023-08-21T16:15:16;6.70;;;2.00;;
77085;SDS011;66014;53.134;18.006;2023-08-21T16:17:43;4.50;;;1.70;;
77085;SDS011;66014;53.134;18.006;2023-08-21T16:20:09;3.90;;;1.70;;
77085;SDS011;66014;53.134;18.006;2023-08-21T16:22:36;4.90;;;2.10;;
77085;SDS011;66014;53.134;18.006;2023-08-21T16:25:03;4.20;;;1.70;;
77085;SDS011;66014;53.134;18.006;2023-08-21T16:27:31;4.30;;;1.60;;
77085;SDS011;66014;53.134;18.006;2023-08-21T16:29:58;3.70;;;1.60;;
77085;SDS011;66014;53.134;18.006;2023-08-21T16:32:24;4.60;;;1.70;;
77085;SDS011;66014;53.134;18.006;2023-08-21T16:34:51;4.00;;;1.70;;
77085;SDS011;66014;53.134;18.006;2023-08-21T16:37:18;4.50;;;1.70;;
77085;SDS011;66014;53.134;18.006;2023-08-21T16:39:45;5.70;;;1.80;;
77085;SDS011;66014;53.134;18.006;2023-08-21T16:42:11;3.60;;;1.60;;
77085;SDS011;66014;53.134;18.006;2023-08-21T16:44:38;3.50;;;1.70;;
77085;SDS011;66014;53.134;18.006;2023-08-21T16:47:05;3.50;;;1.70;;
77085;SDS011;66014;53.134;18.006;2023-08-21T16:49:33;4.90;;;1.60;;
77085;SDS011;66014;53.134;18.006;2023-08-21T16:52:00;4.10;;;1.80;;
77085;SDS011;66014;53.134;18.006;2023-08-21T16:54:28;3.60;;;1.80;;
77085;SDS011;66014;53.134;18.006;2023-08-21T16:59:25;4.00;;;1.90;;
77085;SDS011;66014;53.134;18.006;2023-08-21T17:01:51;4.10;;;1.70;;
77085;SDS011;66014;53.134;18.006;2023-08-21T17:04:18;6.00;;;1.60;;
77085;SDS011;66014;53.134;18.006;2023-08-21T17:06:45;3.30;;;1.80;;
77085;SDS011;66014;53.134;18.006;2023-08-21T17:09:11;3.60;;;1.70;;
77085;SDS011;66014;53.134;18.006;2023-08-21T17:11:39;4.80;;;1.90;;
77085;SDS011;66014;53.134;18.006;2023-08-21T17:14:05;4.70;;;2.10;;
77085;SDS011;66014;53.134;18.006;2023-08-21T17:16:32;4.40;;;2.00;;
77085;SDS011;66014;53.134;18.006;2023-08-21T17:18:59;3.90;;;1.60;;
77085;SDS011;66014;53.134;18.006;2023-08-21T17:21:25;5.80;;;3.10;;
77085;SDS011;66014;53.134;18.006;2023-08-21T17:23:52;5.90;;;3.10;;
77085;SDS011;66014;53.134;18.006;2023-08-21T17:26:18;7.10;;;3.20;;
77085;SDS011;66014;53.134;18.006;2023-08-21T17:28:47;5.30;;;2.10;;
77085;SDS011;66014;53.134;18.006;2023-08-21T17:31:14;4.10;;;2.20;;
77085;SDS011;66014;53.134;18.006;2023-08-21T17:33:41;4.40;;;2.40;;
77085;SDS011;66014;53.134;18.006;2023-08-21T17:36:08;5.00;;;1.70;;
77085;SDS011;66014;53.134;18.006;2023-08-21T17:38:35;5.50;;;1.70;;
77085;SDS011;66014;53.134;18.006;2023-08-21T17:41:01;7.70;;;2.10;;
77085;SDS011;66014;53.134;18.006;2023-08-21T17:43:28;4.70;;;2.20;;
77085;SDS011;66014;53.134;18.006;2023-08-21T17:45:55;4.60;;;1.60;;
77085;SDS011;66014;53.134;18.006;2023-08-21T17:48:21;5.70;;;1.60;;
77085;SDS011;66014;53.134;18.006;2023-08-21T17:50:48;3.80;;;1.30;;
77085;SDS011;66014;53.134;18.006;2023-08-21T17:53:14;6.60;;;1.50;;
77085;SDS011;66014;53.134;18.006;2023-08-21T17:55:41;3.90;;;1.40;;
77085;SDS011;66014;53.134;18.006;2023-08-21T17:58:07;3.80;;;1.20;;
77085;SDS011;66014;53.134;18.006;2023-08-21T18:00:34;3.10;;;1.70;;
77085;SDS011;66014;53.134;18.006;2023-08-21T18:03:02;5.80;;;1.70;;
77085;SDS011;66014;53.134;18.006;2023-08-21T18:05:32;5.20;;;1.50;;
77085;SDS011;66014;53.134;18.006;2023-08-21T18:07:59;3.30;;;1.30;;
77085;SDS011;66014;53.134;18.006;2023-08-21T18:10:28;6.40;;;1.80;;
77085;SDS011;66014;53.134;18.006;2023-08-21T18:12:56;3.90;;;1.40;;
77085;SDS011;66014;53.134;18.006;2023-08-21T18:15:23;4.90;;;1.20;;
77085;SDS011;66014;53.134;18.006;2023-08-21T18:17:50;5.00;;;1.70;;
77085;SDS011;66014;53.134;18.006;2023-08-21T18:20:17;8.10;;;1.80;;
77085;SDS011;66014;53.134;18.006;2023-08-21T18:22:45;3.90;;;1.40;;
77085;SDS011;66014;53.134;18.006;2023-08-21T18:25:11;5.70;;;1.50;;
77085;SDS011;66014;53.134;18.006;2023-08-21T18:27:38;3.60;;;1.10;;
77085;SDS011;66014;53.134;18.006;2023-08-21T18:30:09;6.50;;;1.60;;
77085;SDS011;66014;53.134;18.006;2023-08-21T18:32:44;4.30;;;1.60;;
77085;SDS011;66014;53.134;18.006;2023-08-21T18:35:10;4.90;;;1.50;;
77085;SDS011;66014;53.134;18.006;2023-08-21T18:37:37;5.30;;;2.10;;
77085;SDS011;66014;53.134;18.006;2023-08-21T18:40:06;6.40;;;2.30;;
77085;SDS011;66014;53.134;18.006;2023-08-21T18:42:34;5.10;;;1.90;;
77085;SDS011;66014;53.134;18.006;2023-08-21T18:45:00;4.30;;;1.70;;
77085;SDS011;66014;53.134;18.006;2023-08-21T18:47:27;3.70;;;1.40;;
77085;SDS011;66014;53.134;18.006;2023-08-21T18:49:53;4.70;;;2.00;;
77085;SDS011;66014;53.134;18.006;2023-08-21T18:52:20;5.20;;;1.80;;
77085;SDS011;66014;53.134;18.006;2023-08-21T18:54:46;4.80;;;1.80;;
77085;SDS011;66014;53.134;18.006;2023-08-21T18:57:14;5.40;;;1.70;;
77085;SDS011;66014;53.134;18.006;2023-08-21T18:59:41;9.00;;;2.20;;
77085;SDS011;66014;53.134;18.006;2023-08-21T19:02:07;5.70;;;1.80;;
77085;SDS011;66014;53.134;18.006;2023-08-21T19:04:34;4.50;;;1.50;;
77085;SDS011;66014;53.134;18.006;2023-08-21T19:07:00;3.70;;;1.50;;
77085;SDS011;66014;53.134;18.006;2023-08-21T19:09:27;3.70;;;1.60;;
77085;SDS011;66014;53.134;18.006;2023-08-21T19:11:53;4.70;;;1.80;;
77085;SDS011;66014;53.134;18.006;2023-08-21T19:14:23;5.20;;;1.70;;